PWSweather.com
Personal Weather Stations
Station Observations
SEVANL01
SevillaES 41004

SevillaES 41004

Lat: 37.383633, Lon: -5.985787

Elevation: 19.685

Station Type: Davis Vantage Pro2

www.tiempoensevilla.es

High Low Average
Temperature 86.5°F30.3°C 68.5°F20.3°C 77.2°F25.1°C
Dew Point 51.6°F10.9°C 37.2°F2.9°C 45.6°F7.6°C
Winds 9.8 mph 15.8 kmh 0.7 mph 1.1 kmh 5.0 mph E8.0 kmh E
Wind Gusts 18.0 mph29.0 kmh 4.0 mph6.4 kmh 10.0 mph16.1 kmh
Humidity 41% 26% 33%
Pressure 30.08 in1018.6 mb 29.97 in1014.9 mb -
Precipitation 0.00 in0.0 mm - -
Hour Temp Dew Point Humidity Winds Wind Gusts Pressure Precip Precip Rate Daily Precip Total
12:00 AM 74.3°F23.5°C 37.2°F2.9°C 26% 2.8 mph NNW4.5 kmh NNW 7.0 mph11.3 kmh 29.99 in1015.6 mb 0.00 in0.0 mm 0.00 in0.0 mm 0.00 in0.0 mm
12:20 AM 73.8°F23.2°C 37.7°F3.2°C 27% 3.0 mph NW4.8 kmh NW 6.0 mph9.7 kmh 29.99 in1015.6 mb 0.00 in0.0 mm 0.00 in0.0 mm 0.00 in0.0 mm
12:40 AM 73.5°F23.1°C 38.4°F3.6°C 28% 3.0 mph NW4.8 kmh NW 6.0 mph9.7 kmh 29.98 in1015.2 mb 0.00 in0.0 mm 0.00 in0.0 mm 0.00 in0.0 mm
01:00 AM 73.3°F22.9°C 39.1°F3.9°C 29% 0.7 mph WNW1.1 kmh WNW 4.0 mph6.4 kmh 29.98 in1015.2 mb 0.00 in0.0 mm 0.00 in0.0 mm 0.00 in0.0 mm
01:20 AM 72.8°F22.7°C 39.5°F4.2°C 30% 2.4 mph N3.9 kmh N 7.0 mph11.3 kmh 29.99 in1015.6 mb 0.00 in0.0 mm 0.00 in0.0 mm 0.00 in0.0 mm
01:40 AM 73.0°F22.8°C 40.6°F4.8°C 31% 2.6 mph N4.2 kmh N 5.0 mph8.0 kmh 29.99 in1015.6 mb 0.00 in0.0 mm 0.00 in0.0 mm 0.00 in0.0 mm
02:00 AM 72.9°F22.7°C 40.5°F4.7°C 31% 2.0 mph NW3.2 kmh NW 4.0 mph6.4 kmh 30.00 in1015.9 mb 0.00 in0.0 mm 0.00 in0.0 mm 0.00 in0.0 mm
02:20 AM 72.4°F22.4°C 40.0°F4.4°C 31% 3.3 mph N5.3 kmh N 6.0 mph9.7 kmh 30.00 in1015.9 mb 0.00 in0.0 mm 0.00 in0.0 mm 0.00 in0.0 mm
02:40 AM 72.1°F22.3°C 40.6°F4.8°C 32% 4.0 mph N6.4 kmh N 8.0 mph12.9 kmh 30.00 in1015.9 mb 0.00 in0.0 mm 0.00 in0.0 mm 0.00 in0.0 mm
03:00 AM 71.8°F22.1°C 41.1°F5.1°C 33% 4.0 mph NE6.4 kmh NE 7.0 mph11.3 kmh 29.99 in1015.6 mb 0.00 in0.0 mm 0.00 in0.0 mm 0.00 in0.0 mm
03:20 AM 71.5°F21.9°C 41.6°F5.3°C 34% 3.4 mph NNE5.5 kmh NNE 4.0 mph6.4 kmh 29.99 in1015.6 mb 0.00 in0.0 mm 0.00 in0.0 mm 0.00 in0.0 mm
03:40 AM 70.8°F21.6°C 41.0°F5.0°C 34% 2.5 mph NE4.0 kmh NE 5.0 mph8.0 kmh 30.00 in1015.9 mb 0.00 in0.0 mm 0.00 in0.0 mm 0.00 in0.0 mm
04:00 AM 69.9°F21.1°C 41.0°F5.0°C 35% 3.5 mph E5.6 kmh E 8.0 mph12.9 kmh 30.00 in1015.9 mb 0.00 in0.0 mm 0.00 in0.0 mm 0.00 in0.0 mm
04:20 AM 69.7°F20.9°C 40.8°F4.9°C 35% 2.9 mph NE4.7 kmh NE 5.0 mph8.0 kmh 30.00 in1015.9 mb 0.00 in0.0 mm 0.00 in0.0 mm 0.00 in0.0 mm
04:40 AM 69.8°F21.0°C 40.9°F4.9°C 35% 3.0 mph NE4.8 kmh NE 7.0 mph11.3 kmh 30.00 in1015.9 mb 0.00 in0.0 mm 0.00 in0.0 mm 0.00 in0.0 mm
05:00 AM 69.6°F20.9°C 41.5°F5.3°C 36% 4.8 mph NE7.7 kmh NE 10.0 mph16.1 kmh 30.00 in1015.9 mb 0.00 in0.0 mm 0.00 in0.0 mm 0.00 in0.0 mm
05:20 AM 69.2°F20.7°C 41.1°F5.1°C 36% 2.0 mph ENE3.2 kmh ENE 5.0 mph8.0 kmh 30.00 in1015.9 mb 0.00 in0.0 mm 0.00 in0.0 mm 0.00 in0.0 mm
05:40 AM 68.8°F20.4°C 41.5°F5.3°C 37% 3.7 mph NE6.0 kmh NE 10.0 mph16.1 kmh 30.01 in1016.3 mb 0.00 in0.0 mm 0.00 in0.0 mm 0.00 in0.0 mm
06:00 AM 69.0°F20.6°C 41.6°F5.3°C 37% 3.4 mph NE5.5 kmh NE 8.0 mph12.9 kmh 30.02 in1016.6 mb 0.00 in0.0 mm 0.00 in0.0 mm 0.00 in0.0 mm
06:20 AM 69.2°F20.7°C 42.5°F5.8°C 38% 4.6 mph NE7.4 kmh NE 12.0 mph19.3 kmh 30.02 in1016.6 mb 0.00 in0.0 mm 0.00 in0.0 mm 0.00 in0.0 mm
06:40 AM 68.5°F20.3°C 42.6°F5.9°C 39% 5.9 mph NE9.5 kmh NE 12.0 mph19.3 kmh 30.03 in1016.9 mb 0.00 in0.0 mm 0.00 in0.0 mm 0.00 in0.0 mm
07:00 AM 68.5°F20.3°C 43.2°F6.2°C 40% 5.2 mph NE8.4 kmh NE 12.0 mph19.3 kmh 30.03 in1016.9 mb 0.00 in0.0 mm 0.00 in0.0 mm 0.00 in0.0 mm
07:20 AM 68.7°F20.4°C 43.4°F6.3°C 40% 5.0 mph NE8.0 kmh NE 9.0 mph14.5 kmh 30.04 in1017.3 mb 0.00 in0.0 mm 0.00 in0.0 mm 0.00 in0.0 mm
07:40 AM 69.4°F20.8°C 44.0°F6.7°C 40% 5.2 mph NE8.4 kmh NE 10.0 mph16.1 kmh 30.05 in1017.6 mb 0.00 in0.0 mm 0.00 in0.0 mm 0.00 in0.0 mm
08:00 AM 69.8°F21.0°C 44.4°F6.9°C 40% 3.0 mph NE4.8 kmh NE 8.0 mph12.9 kmh 30.06 in1017.9 mb 0.00 in0.0 mm 0.00 in0.0 mm 0.00 in0.0 mm
08:20 AM 69.9°F21.1°C 45.1°F7.3°C 41% 4.9 mph NNE7.9 kmh NNE 8.0 mph12.9 kmh 30.06 in1017.9 mb 0.00 in0.0 mm 0.00 in0.0 mm 0.00 in0.0 mm
08:40 AM 70.6°F21.4°C 45.1°F7.3°C 40% 3.8 mph NNE6.1 kmh NNE 8.0 mph12.9 kmh 30.06 in1017.9 mb 0.00 in0.0 mm 0.00 in0.0 mm 0.00 in0.0 mm
09:00 AM 70.6°F21.4°C 45.1°F7.3°C 40% 5.0 mph NE8.0 kmh NE 10.0 mph16.1 kmh 30.07 in1018.3 mb 0.00 in0.0 mm 0.00 in0.0 mm 0.00 in0.0 mm
09:20 AM 71.5°F21.9°C 45.2°F7.3°C 39% 4.9 mph NE7.9 kmh NE 9.0 mph14.5 kmh 30.07 in1018.3 mb 0.00 in0.0 mm 0.00 in0.0 mm 0.00 in0.0 mm
09:40 AM 71.9°F22.2°C 45.6°F7.6°C 39% 5.9 mph NE9.5 kmh NE 12.0 mph19.3 kmh 30.08 in1018.6 mb 0.00 in0.0 mm 0.00 in0.0 mm 0.00 in0.0 mm
10:00 AM 73.1°F22.8°C 46.0°F7.8°C 38% 5.5 mph NE8.9 kmh NE 12.0 mph19.3 kmh 30.07 in1018.3 mb 0.00 in0.0 mm 0.00 in0.0 mm 0.00 in0.0 mm
10:20 AM 74.2°F23.4°C 46.2°F7.9°C 37% 7.0 mph ENE11.3 kmh ENE 13.0 mph20.9 kmh 30.08 in1018.6 mb 0.00 in0.0 mm 0.00 in0.0 mm 0.00 in0.0 mm
10:40 AM 74.4°F23.6°C 46.4°F8.0°C 37% 7.1 mph NE11.4 kmh NE 17.0 mph27.4 kmh 30.07 in1018.3 mb 0.00 in0.0 mm 0.00 in0.0 mm 0.00 in0.0 mm
11:00 AM 75.1°F23.9°C 47.0°F8.3°C 37% 7.5 mph ENE12.1 kmh ENE 15.0 mph24.1 kmh 30.08 in1018.6 mb 0.00 in0.0 mm 0.00 in0.0 mm 0.00 in0.0 mm
11:20 AM 75.8°F24.3°C 46.9°F8.3°C 36% 9.4 mph NE15.1 kmh NE 18.0 mph29.0 kmh 30.07 in1018.3 mb 0.00 in0.0 mm 0.00 in0.0 mm 0.00 in0.0 mm
11:40 AM 76.1°F24.5°C 47.2°F8.4°C 36% 9.8 mph ENE15.8 kmh ENE 15.0 mph24.1 kmh 30.07 in1018.3 mb 0.00 in0.0 mm 0.00 in0.0 mm 0.00 in0.0 mm
12:00 PM 77.1°F25.1°C 47.3°F8.5°C 35% 6.5 mph ENE10.5 kmh ENE 11.0 mph17.7 kmh 30.07 in1018.3 mb 0.00 in0.0 mm 0.00 in0.0 mm 0.00 in0.0 mm
12:20 PM 77.4°F25.2°C 47.6°F8.7°C 35% 6.1 mph E9.8 kmh E 14.0 mph22.5 kmh 30.07 in1018.3 mb 0.00 in0.0 mm 0.00 in0.0 mm 0.00 in0.0 mm
12:40 PM 78.2°F25.7°C 47.5°F8.6°C 34% 4.5 mph E7.2 kmh E 14.0 mph22.5 kmh 30.06 in1017.9 mb 0.00 in0.0 mm 0.00 in0.0 mm 0.00 in0.0 mm
01:00 PM 78.7°F25.9°C 48.0°F8.9°C 34% 7.3 mph E11.7 kmh E 14.0 mph22.5 kmh 30.05 in1017.6 mb 0.00 in0.0 mm 0.00 in0.0 mm 0.00 in0.0 mm
01:20 PM 79.4°F26.3°C 47.8°F8.8°C 33% 8.1 mph NE13.0 kmh NE 13.0 mph20.9 kmh 30.05 in1017.6 mb 0.00 in0.0 mm 0.00 in0.0 mm 0.00 in0.0 mm
01:40 PM 80.5°F26.9°C 47.1°F8.4°C 31% 5.0 mph NE8.0 kmh NE 17.0 mph27.4 kmh 30.03 in1016.9 mb 0.00 in0.0 mm 0.00 in0.0 mm 0.00 in0.0 mm
02:00 PM 81.0°F27.2°C 47.5°F8.6°C 31% 6.2 mph NE10.0 kmh NE 13.0 mph20.9 kmh 30.02 in1016.6 mb 0.00 in0.0 mm 0.00 in0.0 mm 0.00 in0.0 mm
02:20 PM 81.7°F27.6°C 47.2°F8.4°C 30% 6.0 mph N9.7 kmh N 12.0 mph19.3 kmh 30.01 in1016.3 mb 0.00 in0.0 mm 0.00 in0.0 mm 0.00 in0.0 mm
02:40 PM 82.6°F28.1°C 48.0°F8.9°C 30% 7.7 mph NNE12.4 kmh NNE 14.0 mph22.5 kmh 30.01 in1016.3 mb 0.00 in0.0 mm 0.00 in0.0 mm 0.00 in0.0 mm
03:00 PM 83.0°F28.3°C 47.5°F8.6°C 29% 6.8 mph ENE10.9 kmh ENE 14.0 mph22.5 kmh 30.00 in1015.9 mb 0.00 in0.0 mm 0.00 in0.0 mm 0.00 in0.0 mm
03:20 PM 83.9°F28.8°C 48.2°F9.0°C 29% 5.6 mph NNE9.0 kmh NNE 15.0 mph24.1 kmh 29.99 in1015.6 mb 0.00 in0.0 mm 0.00 in0.0 mm 0.00 in0.0 mm
03:40 PM 84.7°F29.3°C 48.0°F8.9°C 28% 6.0 mph NE9.7 kmh NE 11.0 mph17.7 kmh 29.99 in1015.6 mb 0.00 in0.0 mm 0.00 in0.0 mm 0.00 in0.0 mm
04:00 PM 84.9°F29.4°C 48.2°F9.0°C 28% 6.3 mph NE10.1 kmh NE 15.0 mph24.1 kmh 29.98 in1015.2 mb 0.00 in0.0 mm 0.00 in0.0 mm 0.00 in0.0 mm
04:20 PM 85.8°F29.9°C 48.9°F9.4°C 28% 7.3 mph NE11.7 kmh NE 14.0 mph22.5 kmh 29.98 in1015.2 mb 0.00 in0.0 mm 0.00 in0.0 mm 0.00 in0.0 mm
04:40 PM 86.1°F30.1°C 49.2°F9.6°C 28% 6.0 mph NE9.7 kmh NE 14.0 mph22.5 kmh 29.97 in1014.9 mb 0.00 in0.0 mm 0.00 in0.0 mm 0.00 in0.0 mm
05:00 PM 86.5°F30.3°C 48.5°F9.2°C 27% 5.9 mph ENE9.5 kmh ENE 11.0 mph17.7 kmh 29.97 in1014.9 mb 0.00 in0.0 mm 0.00 in0.0 mm 0.00 in0.0 mm
05:20 PM 86.5°F30.3°C 48.5°F9.2°C 27% 5.6 mph ESE9.0 kmh ESE 12.0 mph19.3 kmh 29.97 in1014.9 mb 0.00 in0.0 mm 0.00 in0.0 mm 0.00 in0.0 mm
05:40 PM 86.2°F30.1°C 48.3°F9.1°C 27% 7.2 mph E11.6 kmh E 15.0 mph24.1 kmh 29.97 in1014.9 mb 0.00 in0.0 mm 0.00 in0.0 mm 0.00 in0.0 mm
06:00 PM 85.9°F29.9°C 49.0°F9.4°C 28% 5.7 mph E9.2 kmh E 10.0 mph16.1 kmh 29.97 in1014.9 mb 0.00 in0.0 mm 0.00 in0.0 mm 0.00 in0.0 mm
06:20 PM 85.5°F29.7°C 48.7°F9.3°C 28% 5.0 mph SE8.0 kmh SE 10.0 mph16.1 kmh 29.98 in1015.2 mb 0.00 in0.0 mm 0.00 in0.0 mm 0.00 in0.0 mm
06:40 PM 85.4°F29.7°C 48.6°F9.2°C 28% 6.5 mph ESE10.5 kmh ESE 13.0 mph20.9 kmh 29.98 in1015.2 mb 0.00 in0.0 mm 0.00 in0.0 mm 0.00 in0.0 mm
07:00 PM 85.5°F29.7°C 48.7°F9.3°C 28% 3.8 mph E6.1 kmh E 9.0 mph14.5 kmh 29.98 in1015.2 mb 0.00 in0.0 mm 0.00 in0.0 mm 0.00 in0.0 mm
07:20 PM 85.2°F29.6°C 49.4°F9.7°C 29% 4.5 mph ESE7.2 kmh ESE 8.0 mph12.9 kmh 29.99 in1015.6 mb 0.00 in0.0 mm 0.00 in0.0 mm 0.00 in0.0 mm
07:40 PM 84.9°F29.4°C 49.1°F9.5°C 29% 1.9 mph E3.1 kmh E 6.0 mph9.7 kmh 29.99 in1015.6 mb 0.00 in0.0 mm 0.00 in0.0 mm 0.00 in0.0 mm
08:00 PM 84.8°F29.3°C 49.0°F9.4°C 29% 2.0 mph E3.2 kmh E 6.0 mph9.7 kmh 30.00 in1015.9 mb 0.00 in0.0 mm 0.00 in0.0 mm 0.00 in0.0 mm
08:20 PM 84.5°F29.2°C 49.7°F9.8°C 30% 2.0 mph ESE3.2 kmh ESE 5.0 mph8.0 kmh 30.00 in1015.9 mb 0.00 in0.0 mm 0.00 in0.0 mm 0.00 in0.0 mm
08:40 PM 84.4°F29.1°C 49.6°F9.8°C 30% 1.4 mph E2.3 kmh E 4.0 mph6.4 kmh 30.00 in1015.9 mb 0.00 in0.0 mm 0.00 in0.0 mm 0.00 in0.0 mm
09:00 PM 84.4°F29.1°C 49.6°F9.8°C 30% 3.0 mph E4.8 kmh E 6.0 mph9.7 kmh 30.02 in1016.6 mb 0.00 in0.0 mm 0.00 in0.0 mm 0.00 in0.0 mm
09:20 PM 84.2°F29.0°C 49.4°F9.7°C 30% 3.7 mph E6.0 kmh E 9.0 mph14.5 kmh 30.04 in1017.3 mb 0.00 in0.0 mm 0.00 in0.0 mm 0.00 in0.0 mm
09:40 PM 82.9°F28.3°C 51.6°F10.9°C 34% 6.8 mph SE10.9 kmh SE 12.0 mph19.3 kmh 30.05 in1017.6 mb 0.00 in0.0 mm 0.00 in0.0 mm 0.00 in0.0 mm
10:00 PM 81.6°F27.6°C 51.3°F10.7°C 35% 3.3 mph SE5.3 kmh SE 6.0 mph9.7 kmh 30.06 in1017.9 mb 0.00 in0.0 mm 0.00 in0.0 mm 0.00 in0.0 mm
10:20 PM 81.4°F27.4°C 50.3°F10.2°C 34% 3.1 mph ESE5.0 kmh ESE 8.0 mph12.9 kmh 30.06 in1017.9 mb 0.00 in0.0 mm 0.00 in0.0 mm 0.00 in0.0 mm
10:40 PM 81.4°F27.4°C 48.7°F9.3°C 32% 4.5 mph E7.2 kmh E 11.0 mph17.7 kmh 30.06 in1017.9 mb 0.00 in0.0 mm 0.00 in0.0 mm 0.00 in0.0 mm
11:00 PM 80.8°F27.1°C 49.0°F9.4°C 33% 3.6 mph E5.8 kmh E 8.0 mph12.9 kmh 30.06 in1017.9 mb 0.00 in0.0 mm 0.00 in0.0 mm 0.00 in0.0 mm
11:20 PM 79.7°F26.5°C 49.6°F9.8°C 35% 5.8 mph E9.3 kmh E 14.0 mph22.5 kmh 30.06 in1017.9 mb 0.00 in0.0 mm 0.00 in0.0 mm 0.00 in0.0 mm
11:40 PM 78.9°F26.1°C 49.7°F9.8°C 36% 5.3 mph ESE8.5 kmh ESE 11.0 mph17.7 kmh 30.07 in1018.3 mb 0.00 in0.0 mm 0.00 in0.0 mm 0.00 in0.0 mm